logo
App data

The Superfluous

"The Superfluous" [soo-pur-floo-uh s] A cave-diving, sci-fi, rogue-lite, platformer with jet packs and lots of explosions. Help stop an apocalyptic asteroid on collision course with Earth. Lead a squad to the center of the asteroid and blast it into space dust.
Store | Hub | SteamDB | Site
Developer: Voided Pixels Publisher: Voided Pixels
Genre: Action, Adventure, Indie
Languages: English
Tags: Action (25), Indie (25), Adventure (24), Platformer (17), 2D (16), Pixel Graphics (16), Sci-fi (15), Rogue-lite (14), Difficult (12), Funny (11), Story Rich (10), Rogue-like (8)
Category: Single-player, Multi-player, PvP, Shared/Split Screen PvP, Co-op, Shared/Split Screen Co-op, Shared/Split Screen, Steam Achievements, Full controller support, Steam Trading Cards, Remote Play Together
Release date: May 19, 2017 (previously in Early Access)
Price: $1.99
Owners: 0 .. 20,000
Followers: 1,121
Peak concurrent players yesterday: 10
YouTube stats: 2 views and 0 comments for top 50 videos uploaded last week, 0 new videos uploaded yesterday.

Steam Spy is still in beta, so expect major bugs.

Owners data:

Access restricted.

This feature is only available to users with special access rights. Sorry.

If you want to proceed, you need to register or log in first and then back Steam Spy on Patreon. Look for Indie or Pro pledge.

Don't forget to use the same email as on Steam Spy!

Audience in 2 weeks:

Access restricted.

This feature is only available to users with special access rights. Sorry.

If you want to proceed, you need to register or log in first and then back Steam Spy on Patreon. Look for Indie or Pro pledge.

Don't forget to use the same email as on Steam Spy!

Peak daily concurrent players:

CCU data courtesy of SteamDB. Used with permission.

Hourly concurrent players:

Followers over time

Access restricted.

This feature is only available to users with special access rights. Sorry.

If you want to proceed, you need to register or log in first and then back Steam Spy on Patreon. Look for Indie or Pro pledge.

Don't forget to use the same email as on Steam Spy!

Views for top 50 videos on YouTube for this game:

Games similar to this one:

# Game Release date
Price
Score rank
(Userscore / Metascore)
Owners
Players
Playtime (Median)
1 Interplanetary May 12, 2015 N/AN/A (N/A)100,000 .. 200,0000%00:00 (00:00)
2 Ku: Shroud of the Morrigan Mar 17, 2014 $4.99N/A (N/A)20,000 .. 50,0000%00:00 (00:00)
3 Making History: The Great War Jan 29, 2015 $14.99N/A (N/A)20,000 .. 50,0000%00:00 (00:00)
4 Shadow Blade: Reload Aug 10, 2015 $1.99N/A (N/A/70%)20,000 .. 50,0000%00:00 (00:00)
5 Abalone Apr 23, 2014 $6.99N/A (N/A)20,000 .. 50,0000%00:00 (00:00)
6 The Last Federation Apr 18, 2014 $4.99N/A (N/A/72%)50,000 .. 100,0000%00:00 (00:00)
7 Devil's Dare 悪魔の挑戦 Oct 21, 2014 $12.99N/A (N/A)20,000 .. 50,0000%00:00 (00:00)
8 Z Steel Soldiers Aug 1, 2014 $4.41N/A (N/A)50,000 .. 100,0000%00:00 (00:00)
9 Battlepillars Gold Edition Apr 28, 2014 $4.99N/A (N/A)20,000 .. 50,0000%00:00 (00:00)
10 Z Jul 4, 2014 $2.37N/A (N/A)100,000 .. 200,0000%00:00 (00:00)
11 Strategic War in Europe Mar 21, 2014 $1.49N/A (N/A)20,000 .. 50,0000%00:00 (00:00)
12 Battle Group 2 Jun 13, 2014 $0.79N/A (N/A)50,000 .. 100,0000%00:00 (00:00)
13 Super Chibi Knight Jun 24, 2015 $2.49N/A (N/A)20,000 .. 50,0000%00:00 (00:00)
14 Albedo: Eyes from Outer Space Apr 10, 2015 $2.99N/A (N/A/66%)20,000 .. 50,0000%00:00 (00:00)
15 Battleplan: American Civil War Jul 4, 2014 $1.49N/A (N/A/66%)100,000 .. 200,0000%00:00 (00:00)
16 RIVE: Wreck, Hack, Die, Retry! Sep 13, 2016 $1.49N/A (N/A)100,000 .. 200,0000%00:00 (00:00)
17 Meltdown Jun 5, 2014 $6.99N/A (N/A)100,000 .. 200,0000%00:00 (00:00)
18 The Haunted: Hells Reach Oct 24, 2011 $2.24N/A (N/A/51%)50,000 .. 100,0000%00:00 (00:00)
19 VRZ: Torment Jun 9, 2016 $9.99N/A (N/A)0 .. 20,0000%00:00 (00:00)
20 Patrician IV Sep 17, 2010 $3.74N/A (N/A/66%)100,000 .. 200,0000%00:00 (00:00)
21 Zombie Camp Jul 31, 2016 N/AN/A (N/A)0 .. 20,0000%00:00 (00:00)
22 Dead Rising 2: Off the Record Oct 11, 2011 $5.99N/A (N/A/66%)200,000 .. 500,0000%00:00 (00:00)
23 Smithy Jun 3, 2016 $0.49N/A (N/A)20,000 .. 50,0000%00:00 (00:00)
24 Dungeons Feb 10, 2011 $2.99N/A (N/A/65%)200,000 .. 500,0000%00:00 (00:00)
25 ROD: Revolt Of Defense Aug 12, 2016 $0.62N/A (N/A)20,000 .. 50,0000%00:00 (00:00)
26 Star Wolves 3: Civil War Mar 2, 2010 $0.99N/A (N/A)100,000 .. 200,0000%00:00 (00:00)
27 Syrian Warfare Feb 21, 2017 $13.99N/A (N/A)200,000 .. 500,0000%00:00 (00:00)
28 A Game of Thrones - Genesis Sep 28, 2011 $9.99N/A (N/A)100,000 .. 200,0000%00:00 (00:00)
29 Battle Time Sep 29, 2016 $0.49N/A (N/A)50,000 .. 100,0000%00:00 (00:00)
30 Theatre of War 2: Africa 1943 Apr 24, 2009 $0.99N/A (N/A/63%)50,000 .. 100,0000%00:00 (00:00)
31 Beasts Battle Jun 15, 2016 $0.99N/A (N/A)20,000 .. 50,0000%00:00 (00:00)
32 Power of Defense Aug 4, 2010 $9.99N/A (N/A)0 .. 20,0000%00:00 (00:00)
33 BitMaster Oct 12, 2016 $0.5N/A (N/A)100,000 .. 200,0000%00:00 (00:00)
34 Theatre of War 2: Kursk 1943 Mar 9, 2010 $0.99N/A (N/A)50,000 .. 100,0000%00:00 (00:00)
35 Mr. Shifty Apr 13, 2017 $14.99N/A (N/A)100,000 .. 200,0000%00:00 (00:00)
36 Age of Wonders Oct 2010 $1.19N/A (N/A)100,000 .. 200,0000%00:00 (00:00)
37 Toadled Sep 22, 2016 $0.64N/A (N/A)50,000 .. 100,0000%00:00 (00:00)
38 Armada 2526 Apr 8, 2011 $2.69N/A (N/A/66%)0 .. 20,0000%00:00 (00:00)
39 Woodle Tree 2: Worlds Sep 16, 2016 $1.35N/A (N/A)20,000 .. 50,0000%00:00 (00:00)
40 Age of Wonders Shadow Magic Oct 2010 $1.99N/A (N/A/82%)100,000 .. 200,0000%00:00 (00:00)
41 Death's Hangover Jan 20, 2017 $4.99N/A (N/A)20,000 .. 50,0000%00:00 (00:00)
42 RISK: Factions Mar 8, 2011 $4.99N/A (N/A/77%)100,000 .. 200,0000%00:00 (00:00)
43 Sorcerer King: Rivals Sep 22, 2016 $9.99N/A (N/A)20,000 .. 50,0000%00:00 (00:00)
44 Monday Night Combat Jan 24, 2011 $4.99N/A (N/A/82%)200,000 .. 500,0000%00:00 (00:00)
45 Mysterium: A Psychic Clue Game Jan 12, 2017 $6.99N/A (N/A)50,000 .. 100,0000%00:00 (00:00)
46 Greed Corp Dec 10, 2010 $9.99N/A (N/A/76%)200,000 .. 500,0000%00:00 (00:00)
47 Extravaganza Rising Jul 21, 2016 N/AN/A (N/A)20,000 .. 50,0000%00:00 (00:00)
48 Western 1849 Reloaded Feb 10, 2017 $3.99N/A (N/A)0 .. 20,0000%00:00 (00:00)
49 Sword of the Stars II: Enhanced Edition Nov 30, 2012 $4.99N/A (N/A/65%)100,000 .. 200,0000%00:00 (00:00)
50 Atom Zombie Smasher Mar 14, 2011 $4.99N/A (N/A/75%)200,000 .. 500,0000%00:00 (00:00)
51 Bulletstorm: Full Clip Edition Apr 7, 2017 $39.99N/A (N/A/76%)200,000 .. 500,0000%00:00 (00:00)
52 Bombshell Jan 29, 2016 $34.99N/A (N/A/43%)50,000 .. 100,0000%00:00 (00:00)
53 Super Furball Apr 21, 2015 $3.99N/A (N/A)0 .. 20,0000%00:00 (00:00)
54 Commander Cool 2 Dec 17, 2015 $2.99N/A (N/A)50,000 .. 100,0000%00:00 (00:00)
55 N2O: Nitrous Oxide Jun 29, 2015 $4.99N/A (N/A)0 .. 20,0000%00:00 (00:00)
56 Cuban Missile Crisis Mar 25, 2015 $0.74N/A (N/A)20,000 .. 50,0000%00:00 (00:00)
57 Redemption: Saints And Sinners Nov 18, 2016 $0.99N/A (N/A)50,000 .. 100,0000%00:00 (00:00)
58 Interloper May 21, 2015 FreeN/A (N/A/77%)20,000 .. 50,0000%00:00 (00:00)
59 TASTEE: Lethal Tactics May 10, 2016 $14.99N/A (N/A)20,000 .. 50,0000%00:00 (00:00)
60 Kick Ass Commandos Nov 17, 2016 $4.99N/A (N/A)20,000 .. 50,0000%00:00 (00:00)
61 Skyshine's BEDLAM Sep 16, 2015 $3.99N/A (N/A/67%)50,000 .. 100,0000%00:00 (00:00)
62 Assassin’s Creed Chronicles: India Jan 12, 2016 $3.39N/A (N/A)50,000 .. 100,0000%00:00 (00:00)
63 htoL#NiQ: The Firefly Diary May 18, 2016 $2.49N/A (N/A)20,000 .. 50,0000%00:00 (00:00)
64 Nightside Aug 6, 2015 $0.99N/A (N/A)20,000 .. 50,0000%00:00 (00:00)
65 Gnumz: Masters of Defense Dec 21, 2015 $4.99N/A (N/A)200,000 .. 500,0000%00:00 (00:00)
66 Heaven Forest NIGHTS Mar 13, 2017 $0.99N/A (N/A)500,000 .. 1,000,0000%00:00 (00:00)
67 Spooky Cats Jun 4, 2015 $1.04N/A (N/A)20,000 .. 50,0000%00:00 (00:00)
68 Solar Shifter EX Sep 11, 2015 $0.99N/A (N/A)20,000 .. 50,0000%00:00 (00:00)
69 Collapse Apr 11, 2014 $1.99N/A (N/A)50,000 .. 100,0000%00:00 (00:00)
70 Enemy Mind Jun 6, 2014 $1.99N/A (N/A)100,000 .. 200,0000%00:00 (00:00)
71 The Fall May 30, 2014 $1.99N/A (N/A/76%)200,000 .. 500,0000%00:00 (00:00)
72 Avoid - Sensory Overload Apr 8, 2014 $0.99N/A (N/A)20,000 .. 50,0000%00:00 (00:00)
73 Royal Defense Nov 10, 2014 $4.99N/A (N/A)100,000 .. 200,0000%00:00 (00:00)
74 Hard Truck Apocalypse: Arcade / Ex Machina: Arcade Mar 14, 2014 $0.49N/A (N/A)20,000 .. 50,0000%00:00 (00:00)
75 Spice Road Apr 24, 2014 $3.59N/A (N/A)0 .. 20,0000%00:00 (00:00)
76 Rex Rocket Aug 5, 2014 $4.99N/A (N/A)20,000 .. 50,0000%00:00 (00:00)
77 Merchants of Kaidan Nov 10, 2014 $1.49N/A (N/A)100,000 .. 200,0000%00:00 (00:00)
78 Perimeter: Emperor's Testament May 22, 2014 $0.79N/A (N/A/72%)20,000 .. 50,0000%00:00 (00:00)
79 Hero Generations Apr 10, 2015 $1.19N/A (N/A)20,000 .. 50,0000%00:00 (00:00)
80 Perimeter Apr 3, 2014 $0.79N/A (N/A/77%)20,000 .. 50,0000%00:00 (00:00)
81 Viktor Jun 13, 2014 $0.79N/A (N/A)20,000 .. 50,0000%00:00 (00:00)
82 Aggression: Europe Under Fire Apr 9, 2014 $0.99N/A (N/A)50,000 .. 100,0000%00:00 (00:00)
83 Space Colony: Steam Edition Apr 30, 2015 $3.74N/A (N/A/74%)100,000 .. 200,0000%00:00 (00:00)
84 Marauder Apr 4, 2014 $0.99N/A (N/A)50,000 .. 100,0000%00:00 (00:00)
85 The Entente Gold Jun 16, 2014 $0.49N/A (N/A)50,000 .. 100,0000%00:00 (00:00)
86 Delve Deeper Sep 24, 2010 $4.99N/A (N/A)50,000 .. 100,0000%00:00 (00:00)
87 Civil War: Battle of Petersburg Feb 8, 2017 $0.99N/A (N/A)20,000 .. 50,0000%00:00 (00:00)
88 Warp Mar 21, 2012 $4.99N/A (N/A)20,000 .. 50,0000%00:00 (00:00)
89 Fantasy Wars Aug 6, 2010 $0.99N/A (N/A/67%)50,000 .. 100,0000%00:00 (00:00)
90 Defence to death May 11, 2017 $5.99N/A (N/A)20,000 .. 50,0000%00:00 (00:00)
91 Dungeons - The Dark Lord Sep 27, 2011 $4.99N/A (N/A/72%)100,000 .. 200,0000%00:00 (00:00)
92 Men of War: Vietnam Sep 8, 2011 $1.59N/A (N/A/68%)200,000 .. 500,0000%00:00 (00:00)
93 Sudden Strike 2 Gold Aug 30, 2002 $5.99N/A (N/A)50,000 .. 100,0000%00:00 (00:00)
94 Disciples III - Resurrection Oct 11, 2011 $2.99N/A (N/A/63%)100,000 .. 200,0000%00:00 (00:00)
95 Carrier Command: Gaea Mission Sep 28, 2012 $6.59N/A (N/A/60%)200,000 .. 500,0000%00:00 (00:00)
96 Impire Feb 14, 2013 $3.99N/A (N/A/45%)100,000 .. 200,0000%00:00 (00:00)
97 Star Ruler Sep 20, 2010 $7.99N/A (N/A)50,000 .. 100,0000%00:00 (00:00)
98 Hegemony Gold: Wars of Ancient Greece Mar 30, 2012 $3.74N/A (N/A)20,000 .. 50,0000%00:00 (00:00)
99 Pride of Nations Jun 7, 2011 $4.79N/A (N/A/70%)20,000 .. 50,0000%00:00 (00:00)
100 Men of War: Condemned Heroes Apr 12, 2012 $1.59N/A (N/A/57%)100,000 .. 200,0000%00:00 (00:00)
101 Sengoku Sep 15, 2011 $2.49N/A (N/A/70%)100,000 .. 200,0000%00:00 (00:00)
102 Stellar Impact Apr 12, 2012 $9.99N/A (N/A/74%)50,000 .. 100,0000%00:00 (00:00)
103 A.R.E.S.: Extinction Agenda Jan 20, 2011 $4.99N/A (N/A/68%)50,000 .. 100,0000%00:00 (00:00)
104 Swords and Soldiers HD Dec 2, 2010 $2.49N/A (N/A)200,000 .. 500,0000%00:00 (00:00)
105 Gatling Gears Aug 30, 2011 $9.99N/A (N/A)20,000 .. 50,0000%00:00 (00:00)
106 Weapon of Choice Sep 23, 2015 $4.99N/A (N/A)0 .. 20,0000%00:00 (00:00)
107 Incandescent Jun 30, 2015 $0.49N/A (N/A)20,000 .. 50,0000%00:00 (00:00)
108 Explosionade Sep 23, 2015 $3.99N/A (N/A)0 .. 20,0000%00:00 (00:00)
109 Lost in Paradise Aug 20, 2015 $1.01N/A (N/A)20,000 .. 50,0000%00:00 (00:00)
110 Defend The Highlands Nov 6, 2015 $4.99N/A (N/A)100,000 .. 200,0000%00:00 (00:00)
111 Kidnapped Aug 4, 2015 $2.99N/A (N/A)100,000 .. 200,0000%00:00 (00:00)
112 Superstatic Sep 15, 2015 $0.99N/A (N/A)0 .. 20,0000%00:00 (00:00)
113 E.T. Armies Mar 3, 2016 $2.99N/A (N/A/54%)50,000 .. 100,0000%00:00 (00:00)
114 Island Defense Jul 23, 2015 $1.99N/A (N/A)50,000 .. 100,0000%00:00 (00:00)
115 Cross of the Dutchman Sep 10, 2015 $8.99N/A (N/A/59%)20,000 .. 50,0000%00:00 (00:00)
116 Tiki Man Jun 5, 2015 $1.94N/A (N/A)50,000 .. 100,0000%00:00 (00:00)
117 Zombie Party Jun 10, 2016 $1.99N/A (N/A)100,000 .. 200,00025%03:56 (01:18)
118 Biodrone Battle Jul 16, 2015 $1.99N/A (N/A)50,000 .. 100,0000%00:00 (00:00)
119 Heavy Fire: Shattered Spear Oct 23, 2015 $1.19N/A (N/A)0 .. 20,0000%00:00 (00:00)
120 Tcheco in the Castle of Lucio Jun 22, 2015 $0.49N/A (N/A)50,000 .. 100,0000%00:00 (00:00)
121 Infection: Humanity's Last Gasp May 26, 2016 $3.99N/A (N/A)0 .. 20,0000%00:00 (00:00)
122 Valley Aug 24, 2016 $2.99N/A (N/A)200,000 .. 500,0000%00:00 (00:00)
123 Heavy Fire: Afghanistan Aug 15, 2014 $0.89N/A (N/A)50,000 .. 100,0000%00:00 (00:00)
124 Victory At Sea Aug 8, 2014 $6.24N/A (N/A)50,000 .. 100,0000%00:00 (00:00)
125 Battle Academy 2: Eastern Front Sep 12, 2014 $9.59N/A (N/A/78%)0 .. 20,0000%00:00 (00:00)
126 Orbital Gear Aug 7, 2014 $0.99N/A (N/A/59%)200,000 .. 500,0000%00:00 (00:00)
127 Will Fight for Food: Super Actual Sellout: Game of the Hour Apr 22, 2015 $1.24N/A (N/A)0 .. 20,0000%00:00 (00:00)
128 Rooks Keep Dec 5, 2014 $3.99N/A (N/A)0 .. 20,0000%00:00 (00:00)
129 Nux Aug 15, 2014 $0.69N/A (N/A)100,000 .. 200,0000%00:00 (00:00)
130 The Few Jun 18, 2014 $5.35N/A (N/A)50,000 .. 100,0000%00:00 (00:00)
131 Gold Rush! Classic Jul 25, 2014 $1.49N/A (N/A)200,000 .. 500,0000%00:00 (00:00)
132 Psichodelya Aug 8, 2014 N/AN/A (N/A)50,000 .. 100,0000%00:00 (00:00)
133 The Nightmare Cooperative Jul 16, 2014 $1.24N/A (N/A)50,000 .. 100,0000%00:00 (00:00)
134 Momodora III Jul 1, 2014 $1.99N/A (N/A)50,000 .. 100,0000%00:00 (00:00)
135 The Way May 20, 2016 $1.49N/A (N/A/67%)100,000 .. 200,0000%00:00 (00:00)
136 Aeon Command Jul 3, 2014 $0.74N/A (N/A)20,000 .. 50,0000%00:00 (00:00)
137 The Stalin Subway: Red Veil Oct 24, 2014 $0.5N/A (N/A)50,000 .. 100,0000%00:00 (00:00)
138 Blue Estate The Game Apr 8, 2015 $12.99N/A (N/A/59%)50,000 .. 100,0000%00:00 (00:00)
139 Knightmare Tower Jun 16, 2014 $3.99N/A (N/A)0 .. 20,0000%00:00 (00:00)
140 Conflict Desert Storm May 28, 2012 $0.97N/A (N/A/56%)50,000 .. 100,0000%00:00 (00:00)
141 Rise of Venice Sep 27, 2013 $3.99N/A (N/A/66%)50,000 .. 100,0000%00:00 (00:00)
142 Conquest of Elysium 3 Oct 24, 2012 $2.49N/A (N/A)50,000 .. 100,0000%00:00 (00:00)
143 Sang-Froid - Tales of Werewolves Apr 5, 2013 FreeN/A (N/A/79%)200,000 .. 500,0000%00:00 (00:00)
144 Call of Duty: Black Ops - Mac Edition Sep 27, 2012 N/AN/A (N/A)50,000 .. 100,0000%00:00 (00:00)
145 Scourge: Outbreak Apr 2, 2014 $5.99N/A (N/A)100,000 .. 200,0000%00:00 (00:00)
146 Painkiller Hell & Damnation Oct 31, 2012 $4.99N/A (N/A/64%)200,000 .. 500,0000%00:00 (00:00)
147 March of the Eagles Feb 18, 2013 $4.99N/A (N/A/71%)50,000 .. 100,0000%00:00 (00:00)
148 Zeno Clash 2 Apr 30, 2013 $2.99N/A (N/A)200,000 .. 500,0000%00:00 (00:00)
149 Skulls of the Shogun Jul 29, 2013 $1.49N/A (N/A/72%)100,000 .. 200,0000%00:00 (00:00)
150 Jagged Alliance 2 - Wildfire Nov 16, 2012 $2.79N/A (N/A)500,000 .. 1,000,0001.06%04:08 (01:22)
151 ShootMania Storm Apr 10, 2013 $6.79N/A (N/A/76%)50,000 .. 100,0000%00:00 (00:00)
152 Gemini Wars Nov 2, 2012 $4.49N/A (N/A/53%)20,000 .. 50,0000%00:00 (00:00)
153 Armada 2526 Gold Edition Feb 28, 2013 $3.59N/A (N/A/66%)50,000 .. 100,0000%00:00 (00:00)
154 Eufloria HD Oct 14, 2014 $3.74N/A (N/A)100,000 .. 200,0000%00:00 (00:00)
155 Check vs Mate Aug 16, 2012 $7.99N/A (N/A/69%)20,000 .. 50,0000%00:00 (00:00)
156 Arma Tactics Oct 1, 2013 $1.79N/A (N/A/47%)200,000 .. 500,0000%00:00 (00:00)
157 Vampire of the Sands Jul 17, 2015 $4.99N/A (N/A)20,000 .. 50,0000%00:00 (00:00)
158 Little Big Adventure 2 Oct 20, 2015 $1.59N/A (N/A)50,000 .. 100,0000%00:00 (00:00)
159 Vendetta - Curse of Raven's Cry Nov 20, 2015 $8.74N/A (N/A)500,000 .. 1,000,0000%00:00 (00:00)
160 Reverse Crawl Sep 24, 2015 $1.49N/A (N/A)50,000 .. 100,0000%00:00 (00:00)
161 Cashtronauts Aug 31, 2016 $2.99N/A (N/A)0 .. 20,0000%00:00 (00:00)
162 The Juicer Sep 11, 2015 $0.49N/A (N/A)50,000 .. 100,0000%00:00 (00:00)
163 Mold on Pizza Sep 25, 2015 $5.99N/A (N/A)20,000 .. 50,0000%00:00 (00:00)
164 Sky To Fly: Faster Than Wind Mar 25, 2016 $3.99N/A (N/A)20,000 .. 50,0000%00:00 (00:00)
165 Tic-Toc-Tower Sep 28, 2015 $0.5N/A (N/A)0 .. 20,0000%00:00 (00:00)
166 The Political Machine 2016 Feb 4, 2016 N/AN/A (N/A)50,000 .. 100,0000%00:00 (00:00)
167 Rubber and Lead Sep 4, 2015 $4.99N/A (N/A)20,000 .. 50,0000%00:00 (00:00)
168 Crush Your Enemies Jul 13, 2016 $0.99N/A (N/A/63%)20,000 .. 50,0000%00:00 (00:00)
169 Anarcute Jul 12, 2016 $4.49N/A (N/A/79%)20,000 .. 50,0000%00:00 (00:00)
170 Lethe - Episode One Aug 1, 2016 $2.99N/A (N/A)0 .. 20,0000%00:00 (00:00)
171 Toy Odyssey: The Lost and Found Sep 20, 2016 $14.99N/A (N/A/66%)20,000 .. 50,0000%00:00 (00:00)
172 Knight Adventure Oct 15, 2015 $0.99N/A (N/A)50,000 .. 100,0000%00:00 (00:00)
173 Miracle Fly Oct 26, 2015 $2.39N/A (N/A)20,000 .. 50,0000%00:00 (00:00)
174 Platypus II Aug 15, 2014 $6.99N/A (N/A)200,000 .. 500,0000%00:00 (00:00)
175 Spirits of Xanadu Mar 26, 2015 $0.89N/A (N/A)0 .. 20,0000%00:00 (00:00)
176 Gold Rush! Anniversary Nov 7, 2014 $2.99N/A (N/A)50,000 .. 100,0000%00:00 (00:00)
177 Ys VI: The Ark of Napishtim Apr 28, 2015 $4.99N/A (N/A/76%)50,000 .. 100,0000%00:00 (00:00)
178 Deadlings: Rotten Edition Nov 11, 2014 $3.99N/A (N/A)50,000 .. 100,0000%00:00 (00:00)
179 Khet 2.0 Oct 1, 2014 $2.49N/A (N/A)50,000 .. 100,0000%00:00 (00:00)
180 Toren May 11, 2015 $1.99N/A (N/A/57%)100,000 .. 200,0000%00:00 (00:00)
181 Foresight Nov 28, 2014 $1.99N/A (N/A)0 .. 20,0000%00:00 (00:00)
182 Wickland Feb 6, 2015 $0.49N/A (N/A)50,000 .. 100,0000%00:00 (00:00)
183 A.R.E.S. Extinction Agenda EX Oct 3, 2014 $9.99N/A (N/A)0 .. 20,0000%00:00 (00:00)
184 War, the Game Jan 12, 2015 $6.99N/A (N/A/65%)20,000 .. 50,0000%00:00 (00:00)
185 Stonerid Aug 15, 2014 $0.49N/A (N/A)20,000 .. 50,0000%00:00 (00:00)
186 Run or Die Dec 11, 2014 $4.99N/A (N/A)20,000 .. 50,0000%00:00 (00:00)
187 Defenders of Time Nov 4, 2014 N/AN/A (N/A/55%)0 .. 20,0000%00:00 (00:00)
188 Hail to the King: Deathbat Oct 30, 2014 $5.99N/A (N/A)0 .. 20,0000%00:00 (00:00)
189 Hunters Of The Dead Sep 4, 2014 $0.49N/A (N/A)0 .. 20,0000%00:00 (00:00)
190 Super Trench Attack! Jul 24, 2014 $0.49N/A (N/A)50,000 .. 100,0000%00:00 (00:00)
191 Horizon Feb 6, 2014 $5.99N/A (N/A/58%)50,000 .. 100,0000%00:00 (00:00)
192 Divinity: Dragon Commander Aug 6, 2013 $3.99N/A (N/A)200,000 .. 500,0007.69%00:12 (00:04)
193 Anomaly 2 May 15, 2013 $2.99N/A (N/A/77%)200,000 .. 500,0000%00:00 (00:00)
194 Sid Meier’s Ace Patrol Aug 27, 2013 $1.24N/A (N/A)200,000 .. 500,0000%00:00 (00:00)
195 Fist Puncher Jun 21, 2013 $3.99N/A (N/A/73%)20,000 .. 50,0000%00:00 (00:00)
196 VelocityUltra Dec 12, 2013 $1.39N/A (N/A)20,000 .. 50,0000%00:00 (00:00)
197 Skyward Collapse May 23, 2013 $1.24N/A (N/A/64%)100,000 .. 200,0000%00:00 (00:00)
198 ENSLAVED: Odyssey to the West Premium Edition Oct 24, 2013 $4.99N/A (N/A/70%)200,000 .. 500,0000%00:00 (00:00)
199 7 Grand Steps: What Ancients Begat Jun 7, 2013 $11.99N/A (N/A)20,000 .. 50,0000%00:00 (00:00)
200 Dominions 3: The Awakening Sep 10, 2013 $3.99N/A (N/A/82%)20,000 .. 50,0000%00:00 (00:00)
201 Bleed Jul 3, 2013 $1.49N/A (N/A)100,000 .. 200,0000%00:00 (00:00)
202 Livelock Aug 30, 2016 $2.99N/A (N/A/73%)50,000 .. 100,0000%00:00 (00:00)
203 Ittle Dew Jul 23, 2013 $6.99N/A (N/A/67%)100,000 .. 200,0000%00:00 (00:00)
204 Chainsaw Warrior Oct 7, 2013 $0.99N/A (N/A)20,000 .. 50,0000%00:00 (00:00)
205 CastleStorm Jul 29, 2013 $1.99N/A (N/A/73%)100,000 .. 200,0000%00:00 (00:00)
206 Anodyne Mar 22, 2013 $2.99N/A (N/A/75%)100,000 .. 200,0000%00:00 (00:00)
207 Guncraft Aug 9, 2013 $14.99N/A (N/A/73%)100,000 .. 200,0000%00:00 (00:00)
208 Angry Video Game Nerd II: ASSimilation Mar 29, 2016 $4.99N/A (N/A)20,000 .. 50,0000%00:00 (00:00)
209 Tom Clancy's EndWar Feb 25, 2009 $3.39N/A (N/A/68%)100,000 .. 200,0000%00:00 (00:00)
210 The Legend of Dark Witch Dec 1, 2015 $2.49N/A (N/A)20,000 .. 50,0000%00:00 (00:00)
211 BloodRayne Sep 14, 2006 $6.69N/A (N/A/65%)50,000 .. 100,0000%00:00 (00:00)
212 Death by Game Show Jan 22, 2016 $1.99N/A (N/A)0 .. 20,0000%00:00 (00:00)
213 Spectromancer Feb 11, 2009 $3.99N/A (N/A)20,000 .. 50,0000%00:00 (00:00)
214 1775: Rebellion Sep 29, 2016 $9.99N/A (N/A)0 .. 20,0000%00:00 (00:00)
215 Civilization IV: Warlords Apr 6, 2007 $4.99N/A (N/A/84%)1,000,000 .. 2,000,0000%00:00 (00:00)
216 Galaxy Admirals Jan 17, 2017 $1.99N/A (N/A)100,000 .. 200,0000%00:00 (00:00)
217 King Arthur - The Role-playing Wargame Nov 24, 2009 $2.49N/A (N/A)200,000 .. 500,0000%00:00 (00:00)
218 Megamagic: Wizards of the Neon Age Apr 20, 2016 $3.99N/A (N/A/67%)20,000 .. 50,0000%00:00 (00:00)
219 Lost Planet: Extreme Condition Jun 26, 2007 $2.99N/A (N/A/66%)200,000 .. 500,0000%00:00 (00:00)
220 Corgi Warlock Dec 3, 2015 $0.49N/A (N/A)20,000 .. 50,0000%00:00 (00:00)
221 Caster Mar 19, 2009 $1.99N/A (N/A)200,000 .. 500,0000%00:00 (00:00)
222 Neon Chrome Apr 28, 2016 $5.24N/A (N/A/74%)200,000 .. 500,0000%00:00 (00:00)
223 Warhammer 40,000: Dawn of War – Winter Assault Aug 7, 2007 $3.24N/A (N/A)500,000 .. 1,000,0000%00:00 (00:00)
224 Monster Monpiece Mar 14, 2017 $9.99N/A (N/A)20,000 .. 50,0000%00:00 (00:00)
225 Delta Force 2 Jun 18, 2009 $3.74N/A (N/A)100,000 .. 200,0000%00:00 (00:00)
226 Super Helmets on Fire DX Ultra Edition Plus Alpha Feb 15, 2016 FreeN/A (N/A)0 .. 20,0000%00:00 (00:00)
227 Supreme Commander Sep 28, 2011 $2.59N/A (N/A/86%)1,000,000 .. 2,000,0002.08%02:57 (00:59)
228 Goblin Defenders: Steel‘n’ Wood Nov 23, 2015 $1.79N/A (N/A)0 .. 20,0000%00:00 (00:00)
229 Disciples III - Renaissance Steam Special Edition Jul 16, 2010 $2.99N/A (N/A/56%)200,000 .. 500,0000%00:00 (00:00)
230 Earn to Die 2 May 5, 2016 $4.99N/A (N/A)20,000 .. 50,0000%00:00 (00:00)
231 Heroes of Might & Magic V: Hammers of Fate Oct 10, 2008 $2.49N/A (N/A/66%)50,000 .. 100,0000%00:00 (00:00)
232 Gurgamoth Feb 16, 2016 $1.99N/A (N/A)20,000 .. 50,0000%00:00 (00:00)
233 Chaser Jul 16, 2010 $1.24N/A (N/A/66%)100,000 .. 200,0000%00:00 (00:00)
234 Phoning Home Feb 7, 2017 $19.99N/A (N/A/61%)20,000 .. 50,0000%00:00 (00:00)
235 Nuclear Dawn Sep 26, 2011 $1.79N/A (N/A/71%)200,000 .. 500,0000%00:00 (00:00)
236 Vector Strain Dec 9, 2015 $1.49N/A (N/A)20,000 .. 50,0000%00:00 (00:00)
237 The Kings' Crusade Oct 8, 2010 $2.49N/A (N/A/71%)50,000 .. 100,0000%00:00 (00:00)
238 A Blind Legend Apr 7, 2016 $2.79N/A (N/A)0 .. 20,0000%00:00 (00:00)
239 Starscape Nov 3, 2008 $1.99N/A (N/A)20,000 .. 50,0000%00:00 (00:00)
240 Into the Void Dec 4, 2015 $1.99N/A (N/A)20,000 .. 50,0000%00:00 (00:00)
241 Advent Rising Sep 14, 2006 $6.69N/A (N/A/70%)50,000 .. 100,0000%00:00 (00:00)
242 Bet On Soldier Dec 5, 2014 $1.59N/A (N/A)100,000 .. 200,0000%00:00 (00:00)
243 7th Legion Jan 1, 1997 $1.74N/A (N/A)0 .. 20,0000%00:00 (00:00)
244 Bloodsports.TV Mar 30, 2015 $2.49N/A (N/A/69%)100,000 .. 200,0000%00:00 (00:00)
245 Frozen Synapse Prime Nov 14, 2014 $2.49N/A (N/A/83%)100,000 .. 200,0000%00:00 (00:00)
246 Outcast 1.1 Dec 18, 2014 $1.97N/A (N/A)50,000 .. 100,0000%00:00 (00:00)
247 Robotex Nov 19, 2014 $4.99N/A (N/A)200,000 .. 500,0000%00:00 (00:00)
248 Deadnaut Dec 8, 2014 $4.99N/A (N/A)20,000 .. 50,0000%00:00 (00:00)
249 Survivor Squad: Gauntlets Nov 16, 2015 $0.99N/A (N/A)20,000 .. 50,0000%00:00 (00:00)
250 Strategy & Tactics: Wargame Collection Apr 22, 2016 $2.99N/A (N/A)50,000 .. 100,0000%00:00 (00:00)
251 PixelJunk Shooter Ultimate Oct 21, 2015 $1.49N/A (N/A)20,000 .. 50,0000%00:00 (00:00)
252 Death Ray Manta SE Sep 17, 2015 $1.99N/A (N/A)20,000 .. 50,0000%00:00 (00:00)
253 Battle Fleet 2 Nov 20, 2014 $4.49N/A (N/A)20,000 .. 50,0000%00:00 (00:00)
254 Headlander Jul 25, 2016 $5.99N/A (N/A/74%)100,000 .. 200,0000%00:00 (00:00)
255 Kaiju-A-GoGo Apr 23, 2015 $4.99N/A (N/A)20,000 .. 50,0000%00:00 (00:00)
256 Colonial Conquest Jul 28, 2015 $4.99N/A (N/A)20,000 .. 50,0000%00:00 (00:00)
257 Fortified Feb 3, 2016 $2.24N/A (N/A)500,000 .. 1,000,0000%00:00 (00:00)
258 Near Death Aug 2, 2016 $1.59N/A (N/A/70%)20,000 .. 50,0000%00:00 (00:00)
259 SPACECOM Sep 17, 2014 $1.99N/A (N/A/68%)50,000 .. 100,0000%00:00 (00:00)
260 Anomaly Warzone Earth Mobile Campaign Nov 6, 2013 $0.99N/A (N/A)100,000 .. 200,0000%00:00 (00:00)
261 Guns n Zombies Oct 30, 2014 $1.59N/A (N/A)100,000 .. 200,0000%00:00 (00:00)
262 YAIBA: NINJA GAIDEN Z Mar 21, 2014 $29.99N/A (N/A/49%)20,000 .. 50,0000%00:00 (00:00)
263 Major Mayhem Feb 24, 2014 $4.99N/A (N/A)20,000 .. 50,0000%00:00 (00:00)
264 Zombie Tycoon 2: Brainhov's Revenge Dec 9, 2013 $4.99N/A (N/A)50,000 .. 100,0000%00:00 (00:00)
265 Platformines Mar 28, 2014 $1.89N/A (N/A/67%)50,000 .. 100,0000%00:00 (00:00)
266 MoonBase Commander Feb 6, 2014 $1.49N/A (N/A/77%)20,000 .. 50,0000%00:00 (00:00)
267 Deadly 30 Jan 8, 2014 $0.99N/A (N/A)100,000 .. 200,0000%00:00 (00:00)
268 PixelJunk Shooter Nov 11, 2013 $0.89N/A (N/A/73%)100,000 .. 200,0000%00:00 (00:00)
269 Ground Pounders Jul 15, 2014 $2.49N/A (N/A)0 .. 20,0000%00:00 (00:00)
270 Bedlam Oct 13, 2015 N/AN/A (N/A/54%)100,000 .. 200,0000%00:00 (00:00)
271 Gun Metal Jan 16, 2014 $0.59N/A (N/A)200,000 .. 500,0000%00:00 (00:00)
272 Last Knight: Rogue Rider Edition Oct 3, 2014 $1.59N/A (N/A)20,000 .. 50,0000%00:00 (00:00)
273 Antisquad May 22, 2014 $5.99N/A (N/A)50,000 .. 100,0000%00:00 (00:00)
274 Pixel Boy and the Ever Expanding Dungeon May 30, 2014 $0.99N/A (N/A)20,000 .. 50,0000%00:00 (00:00)
275 Master Reboot Oct 29, 2013 $6.49N/A (N/A/59%)50,000 .. 100,0000%00:00 (00:00)
276 Star Realms Mar 8, 2016 FreeN/A (N/A)100,000 .. 200,00020%00:22 (00:07)
277 Blasting Agent: Ultimate Edition Aug 17, 2016 $2.99N/A (N/A)0 .. 20,0000%00:00 (00:00)
278 Control Craft 2 Feb 15, 2016 $0.49N/A (N/A)20,000 .. 50,0000%00:00 (00:00)
279 Magic Quest May 6, 2016 $1.99N/A (N/A)50,000 .. 100,0000%00:00 (00:00)
280 Story Of the Survivor Feb 16, 2016 $0.99N/A (N/A)50,000 .. 100,0000%00:00 (00:00)
281 Defend Your Crypt Jul 21, 2016 $0.5N/A (N/A)0 .. 20,0000%00:00 (00:00)
282 Age of Gladiators Feb 25, 2016 $1.99N/A (N/A)100,000 .. 200,0000%00:00 (00:00)
283 Codex of Victory Mar 16, 2017 $14.99N/A (N/A)20,000 .. 50,0000%00:00 (00:00)
284 Revenge of Roger Rouge Apr 22, 2016 $2.09N/A (N/A)20,000 .. 50,0000%00:00 (00:00)
285 Rocketbirds 2 Evolution Jan 26, 2017 $9.99N/A (N/A)20,000 .. 50,0000%00:00 (00:00)
286 Onechanbara Z2: Chaos Jun 2, 2016 $9.99N/A (N/A)20,000 .. 50,0000%00:00 (00:00)
287 Purgatory Jun 22, 2016 $0.49N/A (N/A)50,000 .. 100,0000%00:00 (00:00)
288 Fatal Fight Jun 10, 2016 $2.99N/A (N/A)0 .. 20,0000%00:00 (00:00)
289 Slash or Die Jun 3, 2016 $1.79N/A (N/A)20,000 .. 50,0000%00:00 (00:00)
290 Assault on Arnhem Mar 11, 2016 $3.99N/A (N/A)0 .. 20,0000%00:00 (00:00)
291 System Crash Aug 1, 2016 $4.49N/A (N/A)0 .. 20,0000%00:00 (00:00)
292 Mad Bullets Jun 10, 2016 $1.49N/A (N/A)0 .. 20,0000%00:00 (00:00)
293 Stay Dead Evolution Feb 4, 2015 $1.01N/A (N/A)20,000 .. 50,0000%00:00 (00:00)
294 Rise & Shine Jan 13, 2017 $14.99N/A (N/A)50,000 .. 100,0000%00:00 (00:00)
295 Dustoff Heli Rescue Mar 6, 2015 $0.99N/A (N/A)20,000 .. 50,0000%00:00 (00:00)
296 BattleLore: Command Mar 31, 2015 $6.99N/A (N/A)0 .. 20,0000%00:00 (00:00)
297 HitBox Jan 30, 2017 FreeN/A (N/A)20,000 .. 50,0000%00:00 (00:00)
298 Hyperspace Pinball Sep 30, 2015 $2.99N/A (N/A)0 .. 20,0000%00:00 (00:00)
299 Samudai Feb 9, 2015 $0.49N/A (N/A)50,000 .. 100,0000%00:00 (00:00)
300 Burstfire Sep 24, 2015 N/AN/A (N/A)50,000 .. 100,0000%00:00 (00:00)
301 Synonymy Mar 5, 2015 $1.99N/A (N/A)20,000 .. 50,0000%00:00 (00:00)
302 Supercharged Robot VULKAISER Jun 4, 2015 $2.49N/A (N/A)20,000 .. 50,0000%00:00 (00:00)
303 Tiamat X May 29, 2015 $0.49N/A (N/A)20,000 .. 50,0000%00:00 (00:00)
304 Locoland May 28, 2015 $0.49N/A (N/A)0 .. 20,0000%00:00 (00:00)
305 Gratuitous Space Battles 2 Apr 16, 2015 $3.39N/A (N/A)20,000 .. 50,0000%00:00 (00:00)
306 King of Dragon Pass Jul 28, 2015 $3.59N/A (N/A)20,000 .. 50,0000%00:00 (00:00)
307 David. Feb 16, 2015 $0.59N/A (N/A)50,000 .. 100,0000%00:00 (00:00)
308 Urban Empire Jan 20, 2017 $29.99N/A (N/A/62%)100,000 .. 200,0000%00:00 (00:00)
309 The Bluecoats: North vs South Feb 2, 2015 $0.99N/A (N/A)100,000 .. 200,0000%00:00 (00:00)

Tags over time:

Access restricted.

This feature is only available to users with special access rights. Sorry.

If you want to proceed, you need to register or log in first and then back Steam Spy on Patreon. Look for Indie or Pro pledge.

Don't forget to use the same email as on Steam Spy!

Owners of this game also own:

Access restricted.

This feature is only available to users with special access rights. Sorry.

If you want to proceed, you need to register or log in first and then back Steam Spy on Patreon. Look for Indie or Pro pledge.

Don't forget to use the same email as on Steam Spy!

Playtime distribution:

Access restricted.

This feature is only available to users with special access rights. Sorry.

If you want to proceed, you need to register or log in first and then back Steam Spy on Patreon. Look for Indie or Pro pledge.

Don't forget to use the same email as on Steam Spy!

Playtime (2 weeks):

Access restricted.

This feature is only available to users with special access rights. Sorry.

If you want to proceed, you need to register or log in first and then back Steam Spy on Patreon. Look for Indie or Pro pledge.

Don't forget to use the same email as on Steam Spy!

User reviews:

Login required.

Please register or log in to see this information.